sensor_id;sensor_type;location;lat;lon;timestamp;P1;durP1;ratioP1;P2;durP2;ratioP2
69573;SDS011;62840;52.366;5.980;2024-02-26T00:00:54;4.57;;;2.17;;
69573;SDS011;62840;52.366;5.980;2024-02-26T00:03:20;6.77;;;2.60;;
69573;SDS011;62840;52.366;5.980;2024-02-26T00:05:46;4.78;;;2.50;;
69573;SDS011;62840;52.366;5.980;2024-02-26T00:08:11;5.17;;;3.00;;
69573;SDS011;62840;52.366;5.980;2024-02-26T00:10:37;5.35;;;2.95;;
69573;SDS011;62840;52.366;5.980;2024-02-26T00:13:03;5.43;;;2.53;;
69573;SDS011;62840;52.366;5.980;2024-02-26T00:15:32;5.65;;;2.85;;
69573;SDS011;62840;52.366;5.980;2024-02-26T00:17:58;5.57;;;2.77;;
69573;SDS011;62840;52.366;5.980;2024-02-26T00:20:24;6.13;;;3.20;;
69573;SDS011;62840;52.366;5.980;2024-02-26T00:22:49;5.47;;;2.95;;
69573;SDS011;62840;52.366;5.980;2024-02-26T00:25:15;6.77;;;3.07;;
69573;SDS011;62840;52.366;5.980;2024-02-26T00:27:41;6.07;;;3.38;;
69573;SDS011;62840;52.366;5.980;2024-02-26T00:30:08;6.68;;;3.20;;
69573;SDS011;62840;52.366;5.980;2024-02-26T00:32:37;6.73;;;3.27;;
69573;SDS011;62840;52.366;5.980;2024-02-26T00:35:04;7.50;;;3.10;;
69573;SDS011;62840;52.366;5.980;2024-02-26T00:37:31;6.10;;;3.20;;
69573;SDS011;62840;52.366;5.980;2024-02-26T00:39:56;5.72;;;2.70;;
69573;SDS011;62840;52.366;5.980;2024-02-26T00:42:22;6.27;;;2.90;;
69573;SDS011;62840;52.366;5.980;2024-02-26T00:44:48;7.03;;;3.70;;
69573;SDS011;62840;52.366;5.980;2024-02-26T00:47:14;7.77;;;3.57;;
69573;SDS011;62840;52.366;5.980;2024-02-26T00:49:42;6.60;;;3.10;;
69573;SDS011;62840;52.366;5.980;2024-02-26T00:52:08;6.28;;;3.22;;
69573;SDS011;62840;52.366;5.980;2024-02-26T00:54:34;8.70;;;3.87;;
69573;SDS011;62840;52.366;5.980;2024-02-26T00:57:00;6.93;;;3.47;;
69573;SDS011;62840;52.366;5.980;2024-02-26T00:59:26;7.10;;;3.40;;
69573;SDS011;62840;52.366;5.980;2024-02-26T01:01:52;8.80;;;3.80;;
69573;SDS011;62840;52.366;5.980;2024-02-26T01:04:18;7.55;;;3.90;;
69573;SDS011;62840;52.366;5.980;2024-02-26T01:06:46;7.35;;;3.75;;
69573;SDS011;62840;52.366;5.980;2024-02-26T01:09:12;8.53;;;4.00;;
69573;SDS011;62840;52.366;5.980;2024-02-26T01:11:38;6.57;;;3.58;;
69573;SDS011;62840;52.366;5.980;2024-02-26T01:14:04;8.40;;;4.18;;
69573;SDS011;62840;52.366;5.980;2024-02-26T01:16:29;9.57;;;4.40;;
69573;SDS011;62840;52.366;5.980;2024-02-26T01:18:55;9.35;;;4.47;;
69573;SDS011;62840;52.366;5.980;2024-02-26T01:21:21;8.52;;;4.28;;
69573;SDS011;62840;52.366;5.980;2024-02-26T01:23:50;8.90;;;4.43;;
69573;SDS011;62840;52.366;5.980;2024-02-26T01:26:16;10.05;;;4.70;;
69573;SDS011;62840;52.366;5.980;2024-02-26T01:28:41;8.32;;;4.50;;
69573;SDS011;62840;52.366;5.980;2024-02-26T01:31:08;9.00;;;4.57;;
69573;SDS011;62840;52.366;5.980;2024-02-26T01:33:34;8.32;;;4.55;;
69573;SDS011;62840;52.366;5.980;2024-02-26T01:36:01;8.48;;;4.43;;
69573;SDS011;62840;52.366;5.980;2024-02-26T01:38:27;8.15;;;4.43;;
69573;SDS011;62840;52.366;5.980;2024-02-26T01:40:56;8.80;;;4.70;;
69573;SDS011;62840;52.366;5.980;2024-02-26T01:43:21;8.15;;;4.32;;
69573;SDS011;62840;52.366;5.980;2024-02-26T01:45:47;8.48;;;4.30;;
69573;SDS011;62840;52.366;5.980;2024-02-26T01:48:13;8.57;;;4.35;;
69573;SDS011;62840;52.366;5.980;2024-02-26T01:50:39;8.23;;;4.60;;
69573;SDS011;62840;52.366;5.980;2024-02-26T01:53:06;8.57;;;4.72;;
69573;SDS011;62840;52.366;5.980;2024-02-26T01:55:35;9.88;;;4.65;;
69573;SDS011;62840;52.366;5.980;2024-02-26T01:58:04;10.48;;;4.90;;
69573;SDS011;62840;52.366;5.980;2024-02-26T02:00:30;11.88;;;4.95;;
69573;SDS011;62840;52.366;5.980;2024-02-26T02:02:57;10.10;;;5.17;;
69573;SDS011;62840;52.366;5.980;2024-02-26T02:05:23;10.20;;;4.68;;
69573;SDS011;62840;52.366;5.980;2024-02-26T02:07:51;10.63;;;5.20;;
69573;SDS011;62840;52.366;5.980;2024-02-26T02:10:17;10.63;;;4.75;;
69573;SDS011;62840;52.366;5.980;2024-02-26T02:12:45;9.70;;;4.43;;
69573;SDS011;62840;52.366;5.980;2024-02-26T02:15:13;9.23;;;4.55;;
69573;SDS011;62840;52.366;5.980;2024-02-26T02:17:39;8.82;;;4.57;;
69573;SDS011;62840;52.366;5.980;2024-02-26T02:20:08;8.88;;;4.20;;
69573;SDS011;62840;52.366;5.980;2024-02-26T02:22:37;9.38;;;4.63;;
69573;SDS011;62840;52.366;5.980;2024-02-26T02:25:04;9.53;;;4.73;;
69573;SDS011;62840;52.366;5.980;2024-02-26T02:27:30;9.82;;;4.45;;
69573;SDS011;62840;52.366;5.980;2024-02-26T02:29:57;11.10;;;4.60;;
69573;SDS011;62840;52.366;5.980;2024-02-26T02:32:23;9.45;;;4.40;;
69573;SDS011;62840;52.366;5.980;2024-02-26T02:34:51;9.15;;;4.38;;
69573;SDS011;62840;52.366;5.980;2024-02-26T02:37:18;9.13;;;4.67;;
69573;SDS011;62840;52.366;5.980;2024-02-26T02:39:46;9.25;;;4.82;;
69573;SDS011;62840;52.366;5.980;2024-02-26T02:42:12;8.32;;;4.68;;
69573;SDS011;62840;52.366;5.980;2024-02-26T02:44:38;9.98;;;4.70;;
69573;SDS011;62840;52.366;5.980;2024-02-26T02:47:04;10.75;;;5.07;;
69573;SDS011;62840;52.366;5.980;2024-02-26T02:49:30;9.98;;;5.05;;
69573;SDS011;62840;52.366;5.980;2024-02-26T02:51:56;8.45;;;4.45;;
69573;SDS011;62840;52.366;5.980;2024-02-26T02:54:22;9.93;;;4.47;;
69573;SDS011;62840;52.366;5.980;2024-02-26T02:56:53;8.80;;;4.13;;
69573;SDS011;62840;52.366;5.980;2024-02-26T02:59:18;10.25;;;4.22;;
69573;SDS011;62840;52.366;5.980;2024-02-26T03:01:44;9.37;;;4.43;;
69573;SDS011;62840;52.366;5.980;2024-02-26T03:04:10;9.52;;;4.55;;
69573;SDS011;62840;52.366;5.980;2024-02-26T03:06:36;8.55;;;4.15;;
69573;SDS011;62840;52.366;5.980;2024-02-26T03:09:02;12.30;;;5.20;;
69573;SDS011;62840;52.366;5.980;2024-02-26T03:11:28;10.07;;;4.72;;
69573;SDS011;62840;52.366;5.980;2024-02-26T03:13:57;9.65;;;4.63;;
69573;SDS011;62840;52.366;5.980;2024-02-26T03:16:22;10.63;;;4.88;;
69573;SDS011;62840;52.366;5.980;2024-02-26T03:18:48;11.23;;;5.37;;
69573;SDS011;62840;52.366;5.980;2024-02-26T03:21:14;10.25;;;4.75;;
69573;SDS011;62840;52.366;5.980;2024-02-26T03:23:40;9.45;;;4.82;;
69573;SDS011;62840;52.366;5.980;2024-02-26T03:26:06;11.27;;;5.23;;
69573;SDS011;62840;52.366;5.980;2024-02-26T03:28:32;9.95;;;4.88;;
69573;SDS011;62840;52.366;5.980;2024-02-26T03:31:00;9.98;;;5.07;;
69573;SDS011;62840;52.366;5.980;2024-02-26T03:33:26;11.10;;;5.13;;
69573;SDS011;62840;52.366;5.980;2024-02-26T03:35:52;11.70;;;5.22;;
69573;SDS011;62840;52.366;5.980;2024-02-26T03:38:18;11.50;;;5.32;;
69573;SDS011;62840;52.366;5.980;2024-02-26T03:40:44;11.43;;;5.57;;
69573;SDS011;62840;52.366;5.980;2024-02-26T03:43:10;9.98;;;5.38;;
69573;SDS011;62840;52.366;5.980;2024-02-26T03:45:36;12.68;;;5.65;;
69573;SDS011;62840;52.366;5.980;2024-02-26T03:48:05;11.90;;;5.40;;
69573;SDS011;62840;52.366;5.980;2024-02-26T03:50:31;11.23;;;5.65;;
69573;SDS011;62840;52.366;5.980;2024-02-26T03:52:57;11.27;;;5.72;;
69573;SDS011;62840;52.366;5.980;2024-02-26T03:55:23;11.70;;;5.10;;
69573;SDS011;62840;52.366;5.980;2024-02-26T03:57:49;11.73;;;6.00;;
69573;SDS011;62840;52.366;5.980;2024-02-26T04:00:15;13.73;;;5.53;;
69573;SDS011;62840;52.366;5.980;2024-02-26T04:02:42;10.80;;;5.60;;
69573;SDS011;62840;52.366;5.980;2024-02-26T04:05:11;11.35;;;5.72;;
69573;SDS011;62840;52.366;5.980;2024-02-26T04:07:38;12.13;;;5.35;;
69573;SDS011;62840;52.366;5.980;2024-02-26T04:10:08;11.75;;;5.47;;
69573;SDS011;62840;52.366;5.980;2024-02-26T04:12:35;10.80;;;5.33;;
69573;SDS011;62840;52.366;5.980;2024-02-26T04:15:01;11.68;;;4.88;;
69573;SDS011;62840;52.366;5.980;2024-02-26T04:17:26;12.20;;;5.43;;
69573;SDS011;62840;52.366;5.980;2024-02-26T04:19:52;11.50;;;5.72;;
69573;SDS011;62840;52.366;5.980;2024-02-26T04:22:21;10.20;;;5.05;;
69573;SDS011;62840;52.366;5.980;2024-02-26T04:24:47;12.25;;;5.22;;
69573;SDS011;62840;52.366;5.980;2024-02-26T04:27:12;12.45;;;5.88;;
69573;SDS011;62840;52.366;5.980;2024-02-26T04:29:38;12.68;;;5.53;;
69573;SDS011;62840;52.366;5.980;2024-02-26T04:32:04;12.25;;;5.70;;
69573;SDS011;62840;52.366;5.980;2024-02-26T04:34:31;11.67;;;5.60;;
69573;SDS011;62840;52.366;5.980;2024-02-26T04:36:57;12.90;;;5.93;;
69573;SDS011;62840;52.366;5.980;2024-02-26T04:39:25;13.38;;;5.63;;
69573;SDS011;62840;52.366;5.980;2024-02-26T04:41:51;10.90;;;4.97;;
69573;SDS011;62840;52.366;5.980;2024-02-26T04:44:17;12.30;;;5.68;;
69573;SDS011;62840;52.366;5.980;2024-02-26T04:46:43;11.18;;;5.60;;
69573;SDS011;62840;52.366;5.980;2024-02-26T04:49:09;11.93;;;5.18;;
69573;SDS011;62840;52.366;5.980;2024-02-26T04:51:35;11.17;;;5.37;;
69573;SDS011;62840;52.366;5.980;2024-02-26T04:54:01;11.55;;;5.78;;
69573;SDS011;62840;52.366;5.980;2024-02-26T04:56:30;13.35;;;6.18;;
69573;SDS011;62840;52.366;5.980;2024-02-26T04:58:56;13.20;;;5.60;;
69573;SDS011;62840;52.366;5.980;2024-02-26T05:01:21;10.55;;;4.85;;
69573;SDS011;62840;52.366;5.980;2024-02-26T05:03:47;13.45;;;5.32;;
69573;SDS011;62840;52.366;5.980;2024-02-26T05:06:13;14.17;;;6.10;;
69573;SDS011;62840;52.366;5.980;2024-02-26T05:08:39;13.32;;;6.03;;
69573;SDS011;62840;52.366;5.980;2024-02-26T05:11:05;12.15;;;5.60;;
69573;SDS011;62840;52.366;5.980;2024-02-26T05:13:33;12.03;;;5.43;;
69573;SDS011;62840;52.366;5.980;2024-02-26T05:15:59;15.27;;;5.75;;
69573;SDS011;62840;52.366;5.980;2024-02-26T05:18:25;12.60;;;5.18;;
69573;SDS011;62840;52.366;5.980;2024-02-26T05:20:51;12.83;;;5.67;;
69573;SDS011;62840;52.366;5.980;2024-02-26T05:23:17;14.07;;;6.25;;
69573;SDS011;62840;52.366;5.980;2024-02-26T05:25:43;15.70;;;6.78;;
69573;SDS011;62840;52.366;5.980;2024-02-26T05:28:09;15.65;;;5.90;;
69573;SDS011;62840;52.366;5.980;2024-02-26T05:30:37;13.15;;;6.25;;
69573;SDS011;62840;52.366;5.980;2024-02-26T05:33:03;14.40;;;6.43;;
69573;SDS011;62840;52.366;5.980;2024-02-26T05:35:29;15.50;;;5.70;;
69573;SDS011;62840;52.366;5.980;2024-02-26T05:37:55;13.88;;;6.35;;
69573;SDS011;62840;52.366;5.980;2024-02-26T05:40:21;12.68;;;5.78;;
69573;SDS011;62840;52.366;5.980;2024-02-26T05:42:47;14.18;;;5.93;;
69573;SDS011;62840;52.366;5.980;2024-02-26T05:45:13;13.48;;;5.78;;
69573;SDS011;62840;52.366;5.980;2024-02-26T05:47:41;14.85;;;6.57;;
69573;SDS011;62840;52.366;5.980;2024-02-26T05:50:07;15.27;;;5.90;;
69573;SDS011;62840;52.366;5.980;2024-02-26T05:52:34;15.02;;;6.85;;
69573;SDS011;62840;52.366;5.980;2024-02-26T05:55:00;13.43;;;5.57;;
69573;SDS011;62840;52.366;5.980;2024-02-26T05:57:26;15.17;;;6.77;;
69573;SDS011;62840;52.366;5.980;2024-02-26T05:59:52;17.00;;;6.95;;
69573;SDS011;62840;52.366;5.980;2024-02-26T06:02:18;15.60;;;6.43;;
69573;SDS011;62840;52.366;5.980;2024-02-26T06:04:46;17.13;;;6.78;;
69573;SDS011;62840;52.366;5.980;2024-02-26T06:07:12;16.27;;;6.88;;
69573;SDS011;62840;52.366;5.980;2024-02-26T06:09:38;17.20;;;6.97;;
69573;SDS011;62840;52.366;5.980;2024-02-26T06:12:04;18.20;;;7.27;;
69573;SDS011;62840;52.366;5.980;2024-02-26T06:14:31;15.30;;;6.35;;
69573;SDS011;62840;52.366;5.980;2024-02-26T06:16:57;17.20;;;6.50;;
69573;SDS011;62840;52.366;5.980;2024-02-26T06:19:22;19.97;;;7.00;;
69573;SDS011;62840;52.366;5.980;2024-02-26T06:21:51;16.13;;;6.57;;
69573;SDS011;62840;52.366;5.980;2024-02-26T06:24:17;17.80;;;7.70;;
69573;SDS011;62840;52.366;5.980;2024-02-26T06:26:43;19.53;;;7.47;;
69573;SDS011;62840;52.366;5.980;2024-02-26T06:29:09;19.70;;;7.07;;
69573;SDS011;62840;52.366;5.980;2024-02-26T06:31:34;18.90;;;7.57;;
69573;SDS011;62840;52.366;5.980;2024-02-26T06:34:00;17.03;;;6.87;;
69573;SDS011;62840;52.366;5.980;2024-02-26T06:36:26;18.83;;;7.13;;
69573;SDS011;62840;52.366;5.980;2024-02-26T06:38:55;19.73;;;6.70;;
69573;SDS011;62840;52.366;5.980;2024-02-26T06:41:20;19.80;;;7.30;;
69573;SDS011;62840;52.366;5.980;2024-02-26T06:43:46;17.00;;;7.57;;
69573;SDS011;62840;52.366;5.980;2024-02-26T06:46:12;19.23;;;7.23;;
69573;SDS011;62840;52.366;5.980;2024-02-26T06:48:38;21.35;;;7.47;;
69573;SDS011;62840;52.366;5.980;2024-02-26T06:51:04;18.17;;;7.10;;
69573;SDS011;62840;52.366;5.980;2024-02-26T06:53:30;18.97;;;7.53;;
69573;SDS011;62840;52.366;5.980;2024-02-26T06:55:58;18.48;;;7.25;;
69573;SDS011;62840;52.366;5.980;2024-02-26T06:58:24;16.70;;;7.22;;
69573;SDS011;62840;52.366;5.980;2024-02-26T07:00:50;17.87;;;7.47;;
69573;SDS011;62840;52.366;5.980;2024-02-26T07:03:16;16.65;;;6.82;;
69573;SDS011;62840;52.366;5.980;2024-02-26T07:05:42;19.25;;;7.35;;
69573;SDS011;62840;52.366;5.980;2024-02-26T07:08:08;15.23;;;6.70;;
69573;SDS011;62840;52.366;5.980;2024-02-26T07:10:33;15.52;;;7.10;;
69573;SDS011;62840;52.366;5.980;2024-02-26T07:13:02;18.40;;;6.53;;
69573;SDS011;62840;52.366;5.980;2024-02-26T07:15:28;16.13;;;6.55;;
69573;SDS011;62840;52.366;5.980;2024-02-26T07:17:54;13.77;;;6.15;;
69573;SDS011;62840;52.366;5.980;2024-02-26T07:20:20;15.70;;;6.15;;
69573;SDS011;62840;52.366;5.980;2024-02-26T07:22:46;14.30;;;5.78;;
69573;SDS011;62840;52.366;5.980;2024-02-26T07:25:11;15.93;;;6.47;;
69573;SDS011;62840;52.366;5.980;2024-02-26T07:27:37;13.57;;;5.63;;
69573;SDS011;62840;52.366;5.980;2024-02-26T07:30:07;12.45;;;5.43;;
69573;SDS011;62840;52.366;5.980;2024-02-26T07:32:34;13.40;;;5.40;;
69573;SDS011;62840;52.366;5.980;2024-02-26T07:35:00;12.27;;;5.18;;
69573;SDS011;62840;52.366;5.980;2024-02-26T07:37:26;12.23;;;5.20;;
69573;SDS011;62840;52.366;5.980;2024-02-26T07:39:52;13.77;;;5.28;;
69573;SDS011;62840;52.366;5.980;2024-02-26T07:42:18;13.38;;;5.35;;
69573;SDS011;62840;52.366;5.980;2024-02-26T07:44:43;11.27;;;4.80;;
69573;SDS011;62840;52.366;5.980;2024-02-26T07:47:12;9.90;;;4.28;;
69573;SDS011;62840;52.366;5.980;2024-02-26T07:49:38;8.90;;;3.95;;
69573;SDS011;62840;52.366;5.980;2024-02-26T07:52:05;9.67;;;4.67;;
69573;SDS011;62840;52.366;5.980;2024-02-26T07:54:31;10.23;;;4.40;;
69573;SDS011;62840;52.366;5.980;2024-02-26T07:56:57;11.95;;;5.07;;
69573;SDS011;62840;52.366;5.980;2024-02-26T07:59:22;10.23;;;4.60;;
69573;SDS011;62840;52.366;5.980;2024-02-26T08:01:49;9.90;;;4.75;;
69573;SDS011;62840;52.366;5.980;2024-02-26T08:04:18;9.65;;;4.10;;
69573;SDS011;62840;52.366;5.980;2024-02-26T08:06:44;9.32;;;4.32;;
69573;SDS011;62840;52.366;5.980;2024-02-26T08:09:10;8.60;;;4.30;;
69573;SDS011;62840;52.366;5.980;2024-02-26T08:11:35;10.43;;;4.38;;
69573;SDS011;62840;52.366;5.980;2024-02-26T08:14:01;10.70;;;4.13;;
69573;SDS011;62840;52.366;5.980;2024-02-26T08:16:27;9.77;;;4.40;;
69573;SDS011;62840;52.366;5.980;2024-02-26T08:18:53;10.18;;;4.50;;
69573;SDS011;62840;52.366;5.980;2024-02-26T08:21:21;10.07;;;4.37;;
69573;SDS011;62840;52.366;5.980;2024-02-26T08:23:47;10.98;;;4.15;;
69573;SDS011;62840;52.366;5.980;2024-02-26T08:26:13;11.13;;;4.13;;
69573;SDS011;62840;52.366;5.980;2024-02-26T08:28:39;8.85;;;3.60;;
69573;SDS011;62840;52.366;5.980;2024-02-26T08:31:05;8.23;;;3.83;;
69573;SDS011;62840;52.366;5.980;2024-02-26T08:33:31;8.07;;;3.85;;
69573;SDS011;62840;52.366;5.980;2024-02-26T08:35:57;9.63;;;3.83;;
69573;SDS011;62840;52.366;5.980;2024-02-26T08:38:25;9.18;;;3.90;;
69573;SDS011;62840;52.366;5.980;2024-02-26T08:40:51;9.80;;;3.92;;
69573;SDS011;62840;52.366;5.980;2024-02-26T08:43:17;8.95;;;4.18;;
69573;SDS011;62840;52.366;5.980;2024-02-26T08:45:43;8.63;;;3.60;;
69573;SDS011;62840;52.366;5.980;2024-02-26T08:48:09;7.57;;;3.42;;
69573;SDS011;62840;52.366;5.980;2024-02-26T08:50:34;8.50;;;3.87;;
69573;SDS011;62840;52.366;5.980;2024-02-26T08:53:00;8.75;;;3.72;;
69573;SDS011;62840;52.366;5.980;2024-02-26T08:55:29;7.43;;;3.65;;
69573;SDS011;62840;52.366;5.980;2024-02-26T08:57:55;7.50;;;3.10;;
69573;SDS011;62840;52.366;5.980;2024-02-26T09:00:21;8.07;;;3.38;;
69573;SDS011;62840;52.366;5.980;2024-02-26T09:02:46;7.30;;;3.13;;
69573;SDS011;62840;52.366;5.980;2024-02-26T09:05:12;8.10;;;3.23;;
69573;SDS011;62840;52.366;5.980;2024-02-26T09:07:38;8.82;;;3.50;;
69573;SDS011;62840;52.366;5.980;2024-02-26T09:10:05;7.72;;;3.05;;
69573;SDS011;62840;52.366;5.980;2024-02-26T09:12:34;8.77;;;3.60;;
69573;SDS011;62840;52.366;5.980;2024-02-26T09:15:00;7.57;;;3.38;;
69573;SDS011;62840;52.366;5.980;2024-02-26T09:17:26;9.85;;;3.28;;
69573;SDS011;62840;52.366;5.980;2024-02-26T09:19:52;7.57;;;3.55;;
69573;SDS011;62840;52.366;5.980;2024-02-26T09:22:18;7.65;;;3.53;;
69573;SDS011;62840;52.366;5.980;2024-02-26T09:24:44;8.63;;;3.72;;
69573;SDS011;62840;52.366;5.980;2024-02-26T09:27:10;6.97;;;3.37;;
69573;SDS011;62840;52.366;5.980;2024-02-26T09:29:38;8.50;;;3.42;;
69573;SDS011;62840;52.366;5.980;2024-02-26T09:32:04;8.02;;;3.60;;
69573;SDS011;62840;52.366;5.980;2024-02-26T09:34:31;8.63;;;3.43;;
69573;SDS011;62840;52.366;5.980;2024-02-26T09:36:56;7.88;;;3.13;;
69573;SDS011;62840;52.366;5.980;2024-02-26T09:39:22;9.57;;;3.53;;
69573;SDS011;62840;52.366;5.980;2024-02-26T09:41:48;7.97;;;3.80;;
69573;SDS011;62840;52.366;5.980;2024-02-26T09:44:14;8.07;;;3.67;;
69573;SDS011;62840;52.366;5.980;2024-02-26T09:46:47;8.25;;;3.25;;
69573;SDS011;62840;52.366;5.980;2024-02-26T09:49:13;6.90;;;3.00;;
69573;SDS011;62840;52.366;5.980;2024-02-26T09:51:41;6.63;;;3.00;;
69573;SDS011;62840;52.366;5.980;2024-02-26T09:54:07;7.82;;;2.95;;
69573;SDS011;62840;52.366;5.980;2024-02-26T09:56:37;8.52;;;2.80;;
69573;SDS011;62840;52.366;5.980;2024-02-26T09:59:05;6.32;;;2.95;;
69573;SDS011;62840;52.366;5.980;2024-02-26T10:01:38;6.10;;;2.53;;
69573;SDS011;62840;52.366;5.980;2024-02-26T10:04:10;8.05;;;3.33;;
69573;SDS011;62840;52.366;5.980;2024-02-26T10:06:37;6.78;;;2.75;;
69573;SDS011;62840;52.366;5.980;2024-02-26T10:09:03;7.32;;;2.95;;
69573;SDS011;62840;52.366;5.980;2024-02-26T10:11:30;6.07;;;2.80;;
69573;SDS011;62840;52.366;5.980;2024-02-26T10:13:58;6.68;;;2.80;;
69573;SDS011;62840;52.366;5.980;2024-02-26T10:16:24;7.18;;;3.03;;
69573;SDS011;62840;52.366;5.980;2024-02-26T10:18:51;6.22;;;2.97;;
69573;SDS011;62840;52.366;5.980;2024-02-26T10:21:20;6.95;;;3.05;;
69573;SDS011;62840;52.366;5.980;2024-02-26T10:23:47;7.23;;;2.83;;
69573;SDS011;62840;52.366;5.980;2024-02-26T10:26:15;6.45;;;2.90;;
69573;SDS011;62840;52.366;5.980;2024-02-26T10:28:41;6.20;;;3.00;;
69573;SDS011;62840;52.366;5.980;2024-02-26T10:31:09;7.47;;;3.28;;
69573;SDS011;62840;52.366;5.980;2024-02-26T10:33:36;6.97;;;3.20;;
69573;SDS011;62840;52.366;5.980;2024-02-26T10:36:03;5.73;;;2.60;;
69573;SDS011;62840;52.366;5.980;2024-02-26T10:38:33;6.85;;;3.30;;
69573;SDS011;62840;52.366;5.980;2024-02-26T10:41:01;6.28;;;2.75;;
69573;SDS011;62840;52.366;5.980;2024-02-26T10:43:27;7.03;;;2.70;;
69573;SDS011;62840;52.366;5.980;2024-02-26T10:45:54;5.83;;;2.57;;
69573;SDS011;62840;52.366;5.980;2024-02-26T10:48:21;6.40;;;2.70;;
69573;SDS011;62840;52.366;5.980;2024-02-26T10:50:47;6.93;;;2.90;;
69573;SDS011;62840;52.366;5.980;2024-02-26T10:53:16;6.97;;;3.03;;
69573;SDS011;62840;52.366;5.980;2024-02-26T10:58:20;7.33;;;3.30;;
69573;SDS011;62840;52.366;5.980;2024-02-26T11:00:47;6.72;;;2.72;;
69573;SDS011;62840;52.366;5.980;2024-02-26T11:03:16;8.60;;;3.47;;
69573;SDS011;62840;52.366;5.980;2024-02-26T11:05:43;8.35;;;3.03;;
69573;SDS011;62840;52.366;5.980;2024-02-26T11:08:11;6.80;;;3.10;;
69573;SDS011;62840;52.366;5.980;2024-02-26T11:10:38;7.27;;;3.07;;
69573;SDS011;62840;52.366;5.980;2024-02-26T11:13:09;8.60;;;3.30;;
69573;SDS011;62840;52.366;5.980;2024-02-26T11:15:39;7.22;;;2.90;;
69573;SDS011;62840;52.366;5.980;2024-02-26T11:18:06;7.25;;;3.10;;
69573;SDS011;62840;52.366;5.980;2024-02-26T11:20:33;6.60;;;2.60;;
69573;SDS011;62840;52.366;5.980;2024-02-26T11:23:05;6.50;;;2.77;;
69573;SDS011;62840;52.366;5.980;2024-02-26T11:25:32;6.75;;;2.67;;
69573;SDS011;62840;52.366;5.980;2024-02-26T11:28:00;7.97;;;3.17;;
69573;SDS011;62840;52.366;5.980;2024-02-26T11:30:33;6.57;;;3.05;;
69573;SDS011;62840;52.366;5.980;2024-02-26T11:33:06;7.15;;;3.15;;
69573;SDS011;62840;52.366;5.980;2024-02-26T11:35:33;7.73;;;3.03;;
69573;SDS011;62840;52.366;5.980;2024-02-26T11:38:01;7.28;;;2.85;;
69573;SDS011;62840;52.366;5.980;2024-02-26T11:40:28;6.43;;;2.88;;
69573;SDS011;62840;52.366;5.980;2024-02-26T11:42:56;7.82;;;2.85;;
69573;SDS011;62840;52.366;5.980;2024-02-26T11:48:22;5.43;;;2.60;;
69573;SDS011;62840;52.366;5.980;2024-02-26T11:50:50;7.25;;;3.05;;
69573;SDS011;62840;52.366;5.980;2024-02-26T11:53:24;7.95;;;2.92;;
69573;SDS011;62840;52.366;5.980;2024-02-26T11:58:46;6.65;;;2.80;;
69573;SDS011;62840;52.366;5.980;2024-02-26T12:04:13;6.95;;;2.60;;
69573;SDS011;62840;52.366;5.980;2024-02-26T12:06:42;6.13;;;2.63;;
69573;SDS011;62840;52.366;5.980;2024-02-26T12:09:31;7.25;;;3.00;;
69573;SDS011;62840;52.366;5.980;2024-02-26T12:11:59;7.90;;;2.90;;
69573;SDS011;62840;52.366;5.980;2024-02-26T12:14:27;7.70;;;2.90;;
69573;SDS011;62840;52.366;5.980;2024-02-26T12:16:55;6.93;;;2.90;;
69573;SDS011;62840;52.366;5.980;2024-02-26T12:19:21;6.18;;;2.70;;
69573;SDS011;62840;52.366;5.980;2024-02-26T12:21:50;7.28;;;3.20;;
69573;SDS011;62840;52.366;5.980;2024-02-26T12:24:18;6.83;;;2.67;;
69573;SDS011;62840;52.366;5.980;2024-02-26T12:26:44;7.03;;;2.95;;
69573;SDS011;62840;52.366;5.980;2024-02-26T12:29:10;7.78;;;3.10;;
69573;SDS011;62840;52.366;5.980;2024-02-26T12:31:37;9.05;;;3.20;;
69573;SDS011;62840;52.366;5.980;2024-02-26T12:34:07;6.03;;;2.57;;
69573;SDS011;62840;52.366;5.980;2024-02-26T12:36:34;8.35;;;3.15;;
69573;SDS011;62840;52.366;5.980;2024-02-26T12:39:01;7.15;;;3.03;;
69573;SDS011;62840;52.366;5.980;2024-02-26T12:41:28;6.53;;;2.72;;
69573;SDS011;62840;52.366;5.980;2024-02-26T12:43:54;6.88;;;2.78;;
69573;SDS011;62840;52.366;5.980;2024-02-26T12:46:20;7.57;;;3.13;;
69573;SDS011;62840;52.366;5.980;2024-02-26T12:48:46;7.82;;;3.00;;
69573;SDS011;62840;52.366;5.980;2024-02-26T12:51:15;6.40;;;2.72;;
69573;SDS011;62840;52.366;5.980;2024-02-26T12:53:43;7.13;;;3.20;;
69573;SDS011;62840;52.366;5.980;2024-02-26T12:56:11;7.23;;;2.80;;
69573;SDS011;62840;52.366;5.980;2024-02-26T12:58:37;6.80;;;2.90;;
69573;SDS011;62840;52.366;5.980;2024-02-26T13:01:05;8.35;;;3.25;;
69573;SDS011;62840;52.366;5.980;2024-02-26T13:03:31;7.20;;;3.40;;
69573;SDS011;62840;52.366;5.980;2024-02-26T13:05:59;7.50;;;2.95;;
69573;SDS011;62840;52.366;5.980;2024-02-26T13:08:31;6.50;;;3.00;;
69573;SDS011;62840;52.366;5.980;2024-02-26T13:10:58;6.95;;;3.05;;
69573;SDS011;62840;52.366;5.980;2024-02-26T13:13:25;7.65;;;3.03;;
69573;SDS011;62840;52.366;5.980;2024-02-26T13:16:00;7.28;;;3.30;;
69573;SDS011;62840;52.366;5.980;2024-02-26T13:18:27;6.68;;;2.92;;
69573;SDS011;62840;52.366;5.980;2024-02-26T13:20:53;5.53;;;2.77;;
69573;SDS011;62840;52.366;5.980;2024-02-26T13:23:19;8.27;;;2.78;;
69573;SDS011;62840;52.366;5.980;2024-02-26T13:25:48;8.10;;;3.05;;
69573;SDS011;62840;52.366;5.980;2024-02-26T13:28:16;8.30;;;3.10;;
69573;SDS011;62840;52.366;5.980;2024-02-26T13:30:49;6.90;;;2.77;;
69573;SDS011;62840;52.366;5.980;2024-02-26T13:33:16;7.00;;;2.50;;
69573;SDS011;62840;52.366;5.980;2024-02-26T13:35:42;6.78;;;2.72;;
69573;SDS011;62840;52.366;5.980;2024-02-26T13:38:08;5.97;;;2.55;;
69573;SDS011;62840;52.366;5.980;2024-02-26T13:40:36;5.28;;;2.25;;
69573;SDS011;62840;52.366;5.980;2024-02-26T13:43:04;5.72;;;2.50;;
69573;SDS011;62840;52.366;5.980;2024-02-26T13:45:30;6.90;;;2.45;;
69573;SDS011;62840;52.366;5.980;2024-02-26T13:48:01;5.63;;;2.60;;
69573;SDS011;62840;52.366;5.980;2024-02-26T13:50:29;5.80;;;2.43;;
69573;SDS011;62840;52.366;5.980;2024-02-26T13:52:55;6.90;;;2.40;;
69573;SDS011;62840;52.366;5.980;2024-02-26T13:55:20;5.43;;;2.30;;
69573;SDS011;62840;52.366;5.980;2024-02-26T13:57:46;6.43;;;2.70;;
69573;SDS011;62840;52.366;5.980;2024-02-26T14:00:16;5.65;;;2.20;;
69573;SDS011;62840;52.366;5.980;2024-02-26T14:02:43;5.82;;;2.50;;
69573;SDS011;62840;52.366;5.980;2024-02-26T14:05:09;6.57;;;2.13;;
69573;SDS011;62840;52.366;5.980;2024-02-26T14:07:35;5.23;;;2.27;;
69573;SDS011;62840;52.366;5.980;2024-02-26T14:10:01;5.68;;;2.50;;
69573;SDS011;62840;52.366;5.980;2024-02-26T14:12:27;5.78;;;2.42;;
69573;SDS011;62840;52.366;5.980;2024-02-26T14:14:53;6.67;;;2.43;;
69573;SDS011;62840;52.366;5.980;2024-02-26T14:17:22;6.57;;;2.67;;
69573;SDS011;62840;52.366;5.980;2024-02-26T14:19:47;6.20;;;2.35;;
69573;SDS011;62840;52.366;5.980;2024-02-26T14:22:13;5.78;;;2.40;;
69573;SDS011;62840;52.366;5.980;2024-02-26T14:24:40;5.43;;;2.10;;
69573;SDS011;62840;52.366;5.980;2024-02-26T14:27:06;6.68;;;2.53;;
69573;SDS011;62840;52.366;5.980;2024-02-26T14:29:35;6.30;;;2.40;;
69573;SDS011;62840;52.366;5.980;2024-02-26T14:32:01;5.57;;;2.25;;
69573;SDS011;62840;52.366;5.980;2024-02-26T14:34:30;5.63;;;2.58;;
69573;SDS011;62840;52.366;5.980;2024-02-26T14:36:56;5.38;;;2.35;;
69573;SDS011;62840;52.366;5.980;2024-02-26T14:39:22;5.68;;;2.25;;
69573;SDS011;62840;52.366;5.980;2024-02-26T14:41:48;5.70;;;2.20;;
69573;SDS011;62840;52.366;5.980;2024-02-26T14:44:14;6.55;;;2.17;;
69573;SDS011;62840;52.366;5.980;2024-02-26T14:46:40;5.15;;;2.50;;
69573;SDS011;62840;52.366;5.980;2024-02-26T14:49:07;5.43;;;2.30;;
69573;SDS011;62840;52.366;5.980;2024-02-26T14:51:35;5.82;;;2.55;;